This is the latest recevied weather packets stored in our database for station/object DC9VQ-13. If no packets are shown the sender has not sent any weather packets the latest 10 day(s).
| Time | Temp. | Humidity | Pressure | Rain* | Wind** | Luminosity | Snow |
|---|---|---|---|---|---|---|---|
| 1777816845 | 24.44° C | 44% | 1013 hPa | 0 mm | - | - | - |
| 1777816244 | 24.44° C | 42% | 1013.1 hPa | 0 mm | - | - | - |
| 1777815641 | 24.44° C | 43% | 1013.3 hPa | 0 mm | - | - | - |
| 1777815039 | 24.44° C | 42% | 1013.2 hPa | 0 mm | - | - | - |
| 1777814437 | 23.89° C | 42% | 1013.3 hPa | 0 mm | - | - | - |
| 1777755753 | 19.44° C | 55% | 1015.8 hPa | 0 mm | - | - | - |
| 1777755170 | 19.44° C | 55% | 1015.8 hPa | 0 mm | - | - | - |
| 1777754538 | 20° C | 53% | 1015.9 hPa | 0 mm | - | - | - |
| 1777753936 | 20° C | 53% | 1015.9 hPa | 0 mm | - | - | - |
| 1777753336 | 20° C | 53% | 1015.9 hPa | 0 mm | - | - | - |
| 1777752743 | 20.56° C | 51% | 1015.9 hPa | 0 mm | - | - | - |
| 1777752132 | 20.56° C | 49% | 1015.9 hPa | 0 mm | - | - | - |
| 1777751528 | 21.11° C | 48% | 1015.9 hPa | 0 mm | - | - | - |
| 1777750926 | 21.67° C | 47% | 1015.9 hPa | 0 mm | - | - | - |
| 1777750328 | 22.22° C | 46% | 1015.8 hPa | 0 mm | - | - | - |
| 1777749722 | 22.78° C | 45% | 1015.8 hPa | 0 mm | - | - | - |
| 1777749122 | 23.33° C | 44% | 1015.7 hPa | 0 mm | - | - | - |
| 1777748519 | 23.89° C | 43% | 1015.7 hPa | 0 mm | - | - | - |
| 1777747918 | 24.44° C | 41% | 1015.7 hPa | 0 mm | - | - | - |
| 1777747315 | 25° C | 40% | 1015.7 hPa | 0 mm | - | - | - |
| 1777746712 | 25.56° C | 39% | 1015.7 hPa | 0 mm | - | - | - |
| 1777746109 | 26.67° C | 37% | 1015.7 hPa | 0 mm | - | - | - |
| 1777745508 | 27.22° C | 36% | 1015.7 hPa | 0 mm | - | - | - |
| 1777744910 | 27.78° C | 36% | 1015.8 hPa | 0 mm | - | - | - |
| 1777744304 | 28.33° C | 35% | 1015.8 hPa | 0 mm | - | - | - |
* Rain latest hour (hover to see other rain measurements)
** Current wind speed in m/s (hover to see current wind gust speed)